Port William, OH (45164)

4:10 AM EST on December 22, 2014 (GMT -0500)
Union Twp. | Change Station
CLOSE
Current Station
Personal Weather Station
Location: Wilmington, OH
Elevation: 1038 ft
Nearby Weather Stations

Elev 1038 ft 39.50 °N, 83.81 °W | Updated 32 seconds ago

Partly Cloudy
Partly Cloudy
24.6 °F
Feels Like 18 °F
N
5.1
Wind Variable Wind from ESE
Gusts 5.1 mph

Today
High -- | Low -- °F
--% Chance of Precip.
Yesterday
High -- | Low -- °F
Precip. -- in
7:52 AM 5:15 PM
New Moon, 0% visible
Pressure 30.12 in
Visibility 5.0 miles
Clouds Mostly Cloudy 4500 ft
Windchill 18 °F
Dew Point 24 °F
Humidity 98%
Rainfall 0.00 in
Snow Depth Not available.
UV 0 out of 12
Pollen .10 out of 12
Air Quality Not available.
Flu Activity Not available.
METAR KILN 220854Z AUTO 08005KT 5SM BR BKN045 M03/M06 A3004 RMK AO2 SLP199 T10331056 56018

More Conditions Fewer Conditions

Pressure 30.12 in
Visibility 5.0 miles
Clouds Mostly Cloudy 4500 ft
Windchill 18 °F
Dew Point 24 °F
Humidity 98%
Rainfall 0.00 in
Snow Depth Not available.
UV 0 out of 12
Pollen .10 out of 12
Air Quality Not available.
Flu Activity Not available.
METAR KILN 220854Z AUTO 08005KT 5SM BR BKN045 M03/M06 A3004 RMK AO2 SLP199 T10331056 56018

More Conditions Fewer Conditions

10-Day Weather Forecast

Almanac

Astronomy

Dec. 22, 2014 Rise Set
Actual Time
Civil Twilight
Nautical Twilight
Astronomical Twilight
Moon
Length of Visible Light
Length of Day
Tomorrow will be .
, % of the Moon is Illuminated

Today's Extremes

State Highs State Lows

Community

WunderPhotos

Upload Photos

1,779,580 photos uploaded!

WunderBlogs® & News

Nearby

Air Quality

  Air Quality AQ Index Pollutant
Not available.

Snow Depth

Station Depth Elevation

Earthquake Activity

City Distance Mag. Time & Date
Minimum magnitude displayed is 2.5.

Coastal Water Temperatures

Place Temperature

Nearby Weather Stations